Latest Weather Observations for Dalby

IDQ60801

Issued at 5:32 pm EST Friday 3 July 2015 (issued every 30 minutes, with the page automatically refreshed every 10 minutes)

About weather observations | Map of weather stations | Latest weather observations for QLD | Other Formats
Station Details ID: 041522 Name: DALBY AIRPORT Lat: -27.16 Lon: 151.26 Height: 343.9 m
Data from the previous 72 hours. | See also: Recent months at Dalby
Date/Time
EST
Temp
°C
App
Temp
°C
Dew
Point
Rel
Hum
%
Delta-T
°C
Wind Press
QNH
hPa
Press
MSL
hPa
Rain
since 9 am
mm
Dir
 
Spd
km/h
Gust
km/h
Spd
kts
Gust
kts
03/05:30pm 12.0 6.9 0.8 46 4.8 E 17 19 9 10 1021.7 1021.7 0.0
03/05:00pm 14.2 9.1 0.5 39 5.9 ESE 17 20 9 11 1021.3 1021.3 0.0
03/04:30pm 16.1 10.8 -0.6 32 7.2 ESE 17 22 9 12 1021.0 1021.0 0.0
03/04:00pm 17.0 11.6 -1.1 29 7.7 SE 17 24 9 13 1020.7 1020.7 0.0
03/03:30pm 17.0 11.4 0.2 32 7.4 SE 19 24 10 13 1020.6 1020.6 0.0
03/03:00pm 16.9 11.6 -0.3 31 7.5 SE 17 28 9 15 1020.8 1020.8 0.0
03/02:30pm 16.7 11.9 0.4 33 7.2 SE 15 26 8 14 1021.1 1021.1 0.0
03/02:00pm 16.2 12.6 0.3 34 6.9 SSE 9 24 5 13 1021.3 1021.3 0.0
03/01:30pm 15.3 10.8 -0.1 35 6.6 SSE 13 20 7 11 1021.5 1021.5 0.0
03/01:00pm 14.6 10.2 0.5 38 6.1 SE 13 28 7 15 1021.8 1021.8 0.0
03/12:30pm 13.9 9.6 1.2 42 5.6 SE 13 22 7 12 1022.3 1022.3 0.0
03/12:00pm 12.9 8.7 1.6 46 4.9 SSE 13 19 7 10 1022.8 1022.8 0.0
03/11:30am 11.5 7.2 3.5 58 3.6 SSE 15 20 8 11 1023.4 1023.5 0.0
03/11:00am 9.6 6.2 4.0 68 2.5 SSW 11 19 6 10 1023.8 1023.9 0.0
03/10:30am 8.4 5.5 4.8 78 1.6 SSE 9 15 5 8 1024.3 1024.3 0.0
03/10:00am 6.8 3.1 4.3 84 1.1 S 13 19 7 10 1024.5 1024.5 0.0
03/09:30am 4.0 0.5 3.3 95 0.3 SSE 11 15 6 8 1024.6 1024.6 0.0
03/09:00am 3.2 0.3 2.5 95 0.3 SE 7 11 4 6 1024.4 1024.4 0.0
03/08:30am 2.6 -0.2 2.0 96 0.2 ENE 6 11 3 6 1023.9 1024.0 0.0
03/08:00am 1.0 -2.3 0.4 96 0.2 E 7 9 4 5 1023.7 1023.8 0.0
03/07:30am -0.9 -4.4 -1.5 96 0.2 E 7 9 4 5 1023.2 1023.2 0.0
03/07:00am -2.0 -6.1 -2.7 95 0.1 ENE 9 11 5 6 1023.0 1023.0 0.0
03/06:30am -2.7 -6.3 -3.5 94 0.1 NNE 6 7 3 4 1022.8 1022.8 0.0
03/06:00am -2.8 -6.0 -3.8 93 0.2 NNE 4 7 2 4 1022.6 1022.6 0.0
03/05:30am -2.5 -5.0 -3.6 92 0.3 CALM 0 0 0 0 1022.4 1022.4 0.0
03/05:00am -1.6 -5.1 -2.9 91 0.4 WNW 6 9 3 5 1022.4 1022.4 0.0
03/04:30am -1.1 -5.1 -2.2 92 0.3 WNW 9 11 5 6 1022.3 1022.3 0.0
03/04:00am -0.3 -3.6 -1.3 93 0.3 N 6 7 3 4 1022.3 1022.3 0.0
03/03:30am -0.4 -3.9 -1.4 93 0.3 NNW 7 9 4 5 1022.4 1022.4 0.0
03/03:00am -1.2 -5.2 -2.5 91 0.4 NNE 9 11 5 6 1022.4 1022.4 0.0
03/02:30am 0.0 -3.9 -1.3 91 0.5 NNW 9 9 5 5 1022.6 1022.6 0.0
03/02:00am 0.0 -3.9 -1.4 90 0.5 NW 9 11 5 6 1022.9 1022.9 0.0
03/01:30am 0.7 -3.8 -0.4 92 0.4 NW 13 15 7 8 1022.9 1022.9 0.0
03/01:00am 1.0 -3.5 -0.1 92 0.4 NNE 13 13 7 7 1023.3 1023.3 0.0
03/12:30am 1.4 -2.7 0.1 91 0.5 NNW 11 11 6 6 1023.4 1023.5 0.0
03/12:00am 2.1 -1.6 0.2 87 0.7 NW 9 11 5 6 1023.6 1023.7 0.0
 
Date/Time
EST
Temp
°C
App
Temp
°C
Dew
Point
Rel
Hum
%
Delta-T
°C
Wind Press
QNH
hPa
Press
MSL
hPa
Rain
since 9 am
mm
Dir
 
Spd
km/h
Gust
km/h
Spd
kts
Gust
kts
02/11:30pm 3.8 0.7 1.2 83 1.0 W 7 11 4 6 1023.7 1023.8 0.0
02/11:00pm 5.5 2.3 2.8 83 1.1 SW 9 13 5 7 1024.1 1024.1 0.0
02/10:30pm 5.9 2.0 3.6 85 1.0 SW 13 17 7 9 1024.1 1024.1 0.0
02/10:00pm 5.8 2.2 2.8 81 1.3 SW 11 15 6 8 1023.7 1023.8 0.0
02/09:30pm 6.4 2.8 3.0 79 1.4 SSW 11 15 6 8 1023.6 1023.7 0.0
02/09:00pm 6.9 3.0 3.2 77 1.6 SSW 13 17 7 9 1023.4 1023.5 0.0
02/08:30pm 6.1 2.3 2.0 75 1.7 SW 11 15 6 8 1023.2 1023.2 0.0
02/08:00pm 7.0 3.4 2.7 74 1.8 SW 11 15 6 8 1023.1 1023.1 0.0
02/07:30pm 6.7 3.3 1.8 71 2.0 SW 9 13 5 7 1022.9 1022.9 0.0
02/07:00pm 8.4 4.7 2.4 66 2.6 SW 11 15 6 8 1022.6 1022.6 0.0
02/06:30pm 9.4 5.0 2.5 62 3.0 SW 15 19 8 10 1022.1 1022.1 0.0
02/06:00pm 9.7 5.2 2.3 60 3.2 SW 15 17 8 9 1021.7 1021.7 0.0
02/05:30pm 11.0 6.5 2.1 54 3.9 SW 15 19 8 10 1021.6 1021.6 0.0
02/05:00pm 12.5 7.5 1.5 47 4.8 SW 17 22 9 12 1021.2 1021.2 0.0
02/04:30pm 14.0 8.1 2.0 44 5.3 SW 22 28 12 15 1021.2 1021.2 0.0
02/04:00pm 14.7 9.1 3.5 47 5.2 SW 22 32 12 17 1021.2 1021.2 0.0
02/03:30pm 14.8 9.7 3.9 48 5.1 WSW 20 28 11 15 1021.2 1021.2 0.0
02/03:00pm 14.6 8.6 3.4 47 5.2 SW 24 39 13 21 1021.3 1021.3 0.0
02/02:30pm 14.6 9.4 3.4 47 5.2 WSW 20 30 11 16 1021.3 1021.3 0.0
02/02:00pm 14.5 8.9 3.3 47 5.1 WSW 22 28 12 15 1021.3 1021.3 0.0
02/01:30pm 14.8 8.9 3.9 48 5.1 WSW 24 33 13 18 1021.6 1021.6 0.0
02/01:00pm 14.9 9.0 3.7 47 5.2 WSW 24 35 13 19 1021.9 1021.9 0.0
02/12:30pm 14.2 7.9 3.7 49 4.9 WSW 26 32 14 17 1022.4 1022.4 0.0
02/12:00pm 14.3 8.5 4.6 52 4.6 SW 24 32 13 17 1022.8 1022.8 0.0
02/11:30am 13.8 8.5 4.9 55 4.2 SW 22 28 12 15 1023.2 1023.2 0.0
02/11:00am 13.9 8.9 4.8 54 4.3 SW 20 30 11 16 1023.7 1023.8 0.0
02/10:30am 13.2 9.9 6.5 64 3.3 WSW 13 22 7 12 1024.2 1024.2 0.0
02/10:00am 12.5 8.7 7.4 71 2.5 SW 17 24 9 13 1024.9 1024.9 0.0
02/09:30am 11.3 7.4 7.2 76 2.0 SW 17 22 9 12 1025.2 1025.2 0.0
02/09:00am 10.7 6.3 7.6 81 1.5 SW 20 24 11 13 1025.1 1025.1 0.0
02/08:30am 9.6 4.8 7.4 86 1.1 SW 22 28 12 15 1024.8 1024.8 0.0
02/08:00am 9.0 4.8 7.5 90 0.7 SW 19 28 10 15 1024.3 1024.3 0.0
02/07:30am 8.1 4.2 7.2 94 0.4 SW 17 20 9 11 1023.9 1024.0 0.0
02/07:00am 6.0 2.4 5.1 94 0.4 SW 13 13 7 7 1023.6 1023.7 0.0
02/06:30am 5.0 1.5 3.7 91 0.6 SW 11 13 6 7 1023.4 1023.5 0.0
02/06:00am 5.5 4.2 4.2 91 0.6 CALM 0 0 0 0 1023.1 1023.1 0.0
02/05:30am 5.7 4.0 3.9 88 0.8 ENE 2 6 1 3 1022.9 1022.9 0.0
02/05:00am 7.5 5.2 5.6 88 0.9 SSE 7 9 4 5 1022.5 1022.5 0.0
02/04:30am 9.3 5.8 7.3 87 1.0 SW 15 17 8 9 1022.5 1022.5 0.0
02/04:00am 9.8 7.6 7.7 87 1.0 SSW 9 13 5 7 1022.9 1022.9 0.0
02/03:30am 10.3 8.3 8.6 89 0.8 S 9 13 5 7 1023.4 1023.5 0.0
02/03:00am 10.1 8.6 9.2 94 0.5 S 7 9 4 5 1023.5 1023.6 0.0
02/02:30am 9.7 7.8 8.9 95 0.4 S 9 15 5 8 1023.8 1023.9 0.0
02/02:00am 9.7 7.8 8.9 95 0.4 SE 9 13 5 7 1023.8 1023.9 0.0
02/01:30am 8.5 7.2 7.7 95 0.4 SE 4 9 2 5 1023.9 1024.0 0.0
02/01:00am 6.9 6.0 6.0 94 0.4 CALM 0 0 0 0 1024.2 1024.2 0.0
02/12:30am 4.5 3.1 3.5 93 0.4 CALM 0 0 0 0 1024.4 1024.4 0.0
02/12:00am 4.2 2.6 2.7 90 0.6 CALM 0 6 0 3 1024.3 1024.3 0.0
 
Date/Time
EST
Temp
°C
App
Temp
°C
Dew
Point
Rel
Hum
%
Delta-T
°C
Wind Press
QNH
hPa
Press
MSL
hPa
Rain
since 9 am
mm
Dir
 
Spd
km/h
Gust
km/h
Spd
kts
Gust
kts
01/11:30pm 7.1 4.7 5.4 89 0.8 SSW 7 9 4 5 1024.4 1024.4 0.0
01/11:00pm 7.9 5.9 6.2 89 0.8 SSW 6 7 3 4 1024.5 1024.5 0.0
01/10:30pm 9.7 8.0 8.3 91 0.7 S 7 11 4 6 1024.4 1024.4 0.0
01/10:00pm 9.1 6.9 7.9 92 0.6 SSW 9 13 5 7 1024.5 1024.5 0.0
01/09:30pm 7.9 5.3 5.9 87 0.9 SW 9 9 5 5 1024.5 1024.5 0.0
01/09:00pm 8.6 6.6 6.9 89 0.8 SW 7 13 4 7 1025.0 1025.0 0.0
01/08:30pm 8.7 6.5 6.2 84 1.2 WSW 7 9 4 5 1024.8 1024.8 0.0
01/08:00pm 9.3 7.2 6.7 84 1.2 WSW 7 9 4 5 1024.6 1024.6 0.0
01/07:30pm 10.7 8.7 7.0 78 1.8 SW 7 9 4 5 1024.4 1024.4 0.0
01/07:00pm 12.0 9.9 8.3 78 1.8 SSW 9 11 5 6 1024.2 1024.2 0.0
01/06:30pm 12.2 9.7 8.1 76 2.1 SW 11 13 6 7 1023.9 1024.0 0.0
01/06:00pm 12.9 10.7 8.0 72 2.4 WSW 9 11 5 6 1023.7 1023.8 0.0
01/05:30pm 14.2 11.8 8.6 69 2.9 SW 11 13 6 7 1023.3 1023.3 0.0
01/05:00pm 15.6 12.6 9.1 65 3.4 SW 15 20 8 11 1023.3 1023.3 0.0
01/04:30pm 16.1 12.6 8.8 62 3.8 SW 17 24 9 13 1023.2 1023.2 0.0
01/04:00pm 16.8 12.5 9.2 61 4.0 SW 22 28 12 15 1023.0 1023.0 0.0
01/03:30pm 17.1 13.5 9.8 62 3.9 SW 19 26 10 14 1023.0 1023.0 0.0
01/03:00pm 17.6 13.5 10.0 61 4.1 SW 22 33 12 18 1023.1 1023.1 0.0
01/02:30pm 18.1 14.3 11.0 63 3.9 WSW 22 32 12 17 1023.1 1023.1 0.0
01/02:00pm 17.1 13.0 10.0 63 3.8 WSW 22 28 12 15 1023.2 1023.2 0.0
01/01:30pm 18.3 14.9 11.1 63 4.0 SW 20 30 11 16 1023.4 1023.5 0.0
01/01:00pm 17.4 13.9 10.3 63 3.8 SW 19 26 10 14 1023.6 1023.7 0.0
01/12:30pm 17.8 15.4 11.4 66 3.5 WSW 15 22 8 12 1024.1 1024.1 0.0
01/12:00pm 17.2 14.7 11.0 67 3.4 WSW 15 20 8 11 1024.6 1024.6 0.0
01/11:30am 16.2 14.0 10.9 71 2.9 SW 13 20 7 11 1025.0 1025.0 0.0
01/11:00am 15.4 13.3 11.2 76 2.3 SW 13 20 7 11 1025.5 1025.5 0.0
01/10:30am 14.8 11.6 11.4 80 1.9 SW 19 22 10 12 1026.1 1026.2 0.0
01/10:00am 14.9 11.5 11.1 78 2.0 SSW 20 26 11 14 1026.2 1026.3 0.0
01/09:30am 15.6 12.6 11.8 78 2.1 SW 19 26 10 14 1026.1 1026.0 0.0
01/09:00am 15.1 12.3 11.3 78 2.1 SW 17 20 9 11 1025.9 1025.8 0.0
01/08:30am 13.5 11.5 11.4 87 1.1 SW 13 19 7 10 1025.6 1025.5 0.0
01/08:00am 11.8 9.9 10.5 92 0.7 WSW 11 17 6 9 1025.4 1025.3 0.0
01/07:30am 11.0 8.5 9.8 92 0.6 SW 13 17 7 9 1025.1 1025.0 0.0
01/07:00am 10.8 8.3 9.7 93 0.6 SW 13 17 7 9 1024.7 1024.6 0.0
01/06:30am 10.9 7.7 9.8 93 0.6 SW 17 22 9 12 1024.4 1024.2 0.0
01/06:00am 10.9 10.0 9.3 90 0.8 NNE 4 9 2 5 1023.7 1023.6 0.0
01/05:30am 11.2 9.1 9.8 91 0.7 NE 11 13 6 7 1023.3 1023.2 0.0
01/05:00am 11.1 9.4 9.9 92 0.6 ENE 9 11 5 6 1023.3 1023.2 0.0
01/04:30am 10.8 8.7 9.6 92 0.6 ENE 11 11 6 6 1023.4 1023.3 0.0
01/04:00am 11.0 8.5 9.6 91 0.7 NE 13 15 7 8 1023.7 1023.6 0.0
01/03:30am 11.2 9.5 9.8 91 0.7 ENE 9 11 5 6 1023.9 1023.8 0.0
01/03:00am 11.2 9.7 9.3 88 1.0 ESE 7 9 4 5 1024.4 1024.2 0.0
01/02:30am 12.2 10.9 9.9 86 1.2 SSE 7 7 4 4 1024.6 1024.5 0.0
01/02:00am 13.0 11.5 10.7 86 1.2 S 9 13 5 7 1024.8 1024.7 0.0
01/01:30am 13.1 10.8 10.6 85 1.3 SSW 13 19 7 10 1024.9 1024.8 0.0
01/01:00am 13.4 10.9 10.9 85 1.3 SSW 15 20 8 11 1025.2 1025.1 0.0
01/12:30am 13.6 11.1 10.9 84 1.4 SSW 15 20 8 11 1025.4 1025.3 0.0
01/12:00am 13.2 11.7 10.7 85 1.3 WSW 9 17 5 9 1025.3 1025.2 0.0
 
Date/Time
EST
Temp
°C
App
Temp
°C
Dew
Point
Rel
Hum
%
Delta-T
°C
Wind Press
QNH
hPa
Press
MSL
hPa
Rain
since 9 am
mm
Dir
 
Spd
km/h
Gust
km/h
Spd
kts
Gust
kts
30/11:30pm 11.6 9.6 10.2 91 0.7 NE 11 11 6 6 1025.3 1025.2 0.0
30/11:00pm 10.5 9.0 8.6 88 0.9 E 6 7 3 4 1025.4 1025.3 0.0
30/10:30pm 10.7 8.7 8.6 87 1.1 E 9 9 5 5 1025.3 1025.2 0.0
30/10:00pm 10.9 8.1 8.5 85 1.2 ENE 13 13 7 7 1025.3 1025.2 0.0
30/09:30pm 12.6 11.0 10.1 85 1.3 E 9 11 5 6 1025.6 1025.5 0.0
30/09:00pm 13.4 11.5 10.6 83 1.5 E 11 13 6 7 1025.7 1025.6 0.0
30/08:30pm 13.8 11.9 10.6 81 1.7 E 11 13 6 7 1025.7 1025.6 0.0
30/08:00pm 14.8 13.1 11.2 79 1.9 ESE 11 13 6 7 1025.5 1025.4 0.0
30/07:30pm 15.7 13.6 11.3 75 2.4 ESE 13 15 7 8 1025.3 1025.2 0.0
30/07:00pm 15.8 13.8 11.6 76 2.3 ESE 13 13 7 7 1024.9 1024.8 0.0
30/06:30pm 15.3 13.6 11.1 76 2.3 E 11 13 6 7 1024.7 1024.6 0.0
30/06:00pm 15.8 13.8 11.4 75 2.4 E 13 15 7 8 1024.5 1024.3 0.0

Other Formats:

Comma delimited format used in spreadsheet applications
http://www.bom.gov.au/fwo/IDQ60801/IDQ60801.94542.axf

JavaScript Object Notation format (JSON) in row-major order
http://www.bom.gov.au/fwo/IDQ60801/IDQ60801.94542.json